Senkursk, Russia
Current Conditions -  °F | °C
As of 3:00 AM on Thursday 27 Nov 2014 (Local Time) from ULAA Reporting Station
Snow Showers Snow Showers  
Wind Chill: 28°   Ceiling: 500
Heat Index: 32°   Visibility: 1.5mi
Dew Point: 32°   Wind: 4mph
Humidity: 100%   Direction: 250°WSW
Pressure: 30.21"   Gusts: NA
Location:  62.1°N, 42.9°E
Report Text: ULAA 270000Z 25002MPS 2500 -SHSNRA OVC005CB 00/00 Q1023 BECMG 1000 SHSN BR BKN003CB RMK QBB150 QFE765/1021 SC035
Loading
Personal Weather Stations






























Interactive Weather Map New forecast layout! Learn more

10-Day Weather Forecast

Advertisements
Track Severe Weather on mobile